KHON

Huron Regional Airport

Airport
ICAO code
KHON
IATA Code
HSV
Summary
ICAO Region
NAM
ICAO Territory
Location

Huron, South Dakota

Serving
Huron
Elevation
1289 ft
Coordinates
44° 23' 5" N , 98° 13' 32" W
KCC
Airport CFIT
Altimeter Temperature Error Correction
Metar
KHON 201915Z AUTO 12008KT 10SM OVC009 16/14 A3025 RMK AO2 LTG DSNT S AND W RAE14 CIG 007V011 P0000 T01560144

Huron Regional Airport is a public use airport located in the city of Huron in Beadle County, South Dakota, USA.

Airport map

Aerial View

SKYbrary Partners:

Safety knowledge contributed by: